Time;durP1;ratioP1;P1;durP2;ratioP2;P2;SDS_P1;SDS_P2;PMS_P1;PMS_P2;Temp;Humidity;BMP_temperature;BMP_pressure;BME280_temperature;BME280_humidity;BME280_pressure;Samples;Min_cycle;Max_cycle;Signal;HPM_P1;HPM_P2
2022/01/24 00:00:30;;;;;;;16.93;10.00;;;;;;;5.52;100.00;103015.75;5084897;27;20269;-49
2022/01/24 00:02:56;;;;;;;18.43;10.87;;;;;;;5.54;100.00;103011.50;5083672;28;20242;-51
2022/01/24 00:05:24;;;;;;;17.47;10.93;;;;;;;5.52;100.00;103016.66;5079861;28;20259;-57
2022/01/24 00:07:50;;;;;;;15.43;10.63;;;;;;;5.50;100.00;103013.94;5076844;27;20291;-51
2022/01/24 00:10:20;;;;;;;14.53;9.97;;;;;;;5.53;100.00;103017.53;5078562;27;20234;-50
2022/01/24 00:12:58;;;;;;;17.07;10.63;;;;;;;5.52;100.00;103013.16;5077321;28;20227;-50
2022/01/24 00:15:47;;;;;;;16.00;9.70;;;;;;;5.50;100.00;103010.44;5082960;28;20750;-49
2022/01/24 00:18:14;;;;;;;16.63;10.17;;;;;;;5.51;100.00;103007.06;5076327;27;20322;-50
2022/01/24 00:29:02;;;;;;;18.37;10.63;;;;;;;5.56;100.00;103013.41;5082511;27;20233;-52
2022/01/24 00:31:28;;;;;;;19.57;9.80;;;;;;;5.56;100.00;103015.13;5080939;27;20879;-52
2022/01/24 00:33:54;;;;;;;17.53;10.40;;;;;;;5.55;100.00;103010.72;5083083;27;20254;-50
2022/01/24 00:36:22;;;;;;;16.67;9.90;;;;;;;5.54;100.00;103015.00;5082933;27;20296;-53
2022/01/24 00:38:48;;;;;;;19.10;10.47;;;;;;;5.55;100.00;103010.72;5084000;27;20277;-52
2022/01/24 00:41:18;;;;;;;15.43;11.40;;;;;;;5.56;100.00;103012.50;5082767;27;20297;-53
2022/01/24 00:43:58;;;;;;;21.13;10.57;;;;;;;5.55;100.00;103010.72;5079308;28;20222;-49
2022/01/24 00:46:34;;;;;;;19.70;10.93;;;;;;;5.56;100.00;103016.00;5071432;28;20246;-51
2022/01/24 00:49:19;;;;;;;17.30;11.87;;;;;;;5.55;100.00;103011.63;5078514;27;20233;-51
2022/01/24 00:54:43;;;;;;;15.97;10.53;;;;;;;5.57;100.00;103014.28;5082279;28;20868;-48
2022/01/24 00:57:10;;;;;;;16.33;10.17;;;;;;;5.58;100.00;103013.47;5078155;28;20253;-51
2022/01/24 00:59:37;;;;;;;13.50;9.80;;;;;;;5.59;100.00;103008.38;5078681;27;20246;-50
2022/01/24 01:02:04;;;;;;;11.90;8.93;;;;;;;5.60;100.00;103010.16;5086903;27;20649;-49
2022/01/24 01:04:39;;;;;;;15.80;8.77;;;;;;;5.62;100.00;103013.75;5085352;28;20287;-48
2022/01/24 01:07:07;;;;;;;14.87;9.53;;;;;;;5.62;100.00;103008.53;5073253;27;20234;-51
2022/01/24 01:20:40;;;;;;;17.77;11.03;;;;;;;5.65;100.00;103013.94;5076567;28;20393;-51
2022/01/24 01:23:08;;;;;;;14.53;10.10;;;;;;;5.66;100.00;103013.09;5081541;27;20233;-53
2022/01/24 01:25:37;;;;;;;16.83;10.17;;;;;;;5.61;100.00;103009.31;5079595;28;21076;-52
2022/01/24 01:28:03;;;;;;;18.07;11.50;;;;;;;5.61;100.00;103006.72;5081879;28;20652;-51
2022/01/24 01:30:37;;;;;;;14.73;9.87;;;;;;;5.63;100.00;103007.72;5082316;27;20266;-50
2022/01/24 01:33:11;;;;;;;17.83;10.30;;;;;;;5.67;100.00;103007.06;5083100;27;20324;-51
2022/01/24 01:35:51;;;;;;;17.77;11.10;;;;;;;5.63;100.00;103007.72;5086233;28;20625;-51
2022/01/24 01:54:50;;;;;;;13.03;9.73;;;;;;;5.59;100.00;103010.97;5071361;28;20238;-53
2022/01/24 01:57:18;;;;;;;13.87;8.90;;;;;;;5.62;100.00;103012.84;5069747;28;20601;-49
2022/01/24 01:59:45;;;;;;;23.23;10.07;;;;;;;5.64;100.00;103017.31;5084513;28;20402;-50
2022/01/24 02:02:11;;;;;;;12.30;8.70;;;;;;;5.55;100.00;103014.22;5083412;27;20238;-50
2022/01/24 02:04:38;;;;;;;10.50;8.30;;;;;;;5.55;100.00;103021.16;5078855;28;20262;-51
2022/01/24 02:07:04;;;;;;;13.40;9.87;;;;;;;5.55;100.00;103014.22;5069157;28;20235;-50
2022/01/24 02:09:34;;;;;;;12.43;9.53;;;;;;;5.51;100.00;103012.25;5091041;27;20233;-51
2022/01/24 02:12:00;;;;;;;14.30;9.40;;;;;;;5.53;100.00;103007.13;5076938;28;20251;-50
2022/01/24 02:14:32;;;;;;;13.70;8.97;;;;;;;5.49;100.00;103006.94;5082124;28;20231;-51
2022/01/24 02:17:04;;;;;;;15.83;9.87;;;;;;;5.49;100.00;103001.72;5091346;28;20234;-50
2022/01/24 02:19:37;;;;;;;11.33;8.33;;;;;;;5.54;100.00;103001.09;5088803;27;20242;-51
2022/01/24 02:22:40;;;;;;;11.17;9.53;;;;;;;5.48;100.00;102999.94;5081343;28;20711;-51
2022/01/24 02:25:16;;;;;;;13.37;9.57;;;;;;;5.48;100.00;103001.66;5078382;28;20221;-51
2022/01/24 02:27:44;;;;;;;11.23;9.30;;;;;;;5.45;100.00;102993.66;5075064;28;20633;-50
2022/01/24 02:30:23;;;;;;;12.23;8.90;;;;;;;5.43;100.00;102988.34;5074682;28;20262;-51
2022/01/24 02:32:50;;;;;;;14.63;9.43;;;;;;;5.42;100.00;102991.78;5081896;27;20233;-52
2022/01/24 02:35:16;;;;;;;11.87;9.77;;;;;;;5.44;100.00;102997.06;5077244;27;20229;-51
2022/01/24 02:37:44;;;;;;;13.17;9.53;;;;;;;5.40;100.00;102996.00;5082012;27;20238;-50
2022/01/24 02:40:14;;;;;;;12.53;9.77;;;;;;;5.41;100.00;102987.38;5076472;28;20238;-51
2022/01/24 02:48:24;;;;;;;12.10;10.00;;;;;;;5.46;100.00;103001.56;5075420;28;20291;-50
2022/01/24 02:53:42;;;;;;;11.63;9.20;;;;;;;5.42;100.00;102996.09;5078340;28;20244;-52
2022/01/24 02:56:09;;;;;;;9.43;8.27;;;;;;;5.43;100.00;103003.97;5069171;28;20234;-54
2022/01/24 02:58:36;;;;;;;14.27;8.50;;;;;;;5.41;100.00;102999.53;5075694;28;20312;-50
2022/01/24 03:01:06;;;;;;;12.90;8.53;;;;;;;5.41;100.00;102996.91;5078942;28;20234;-50
2022/01/24 03:03:32;;;;;;;16.00;10.50;;;;;;;5.38;100.00;102986.31;5081979;28;20242;-51
2022/01/24 03:05:58;;;;;;;11.37;8.70;;;;;;;5.37;100.00;102981.91;5073670;28;20250;-51
2022/01/24 03:08:25;;;;;;;12.57;9.63;;;;;;;5.45;100.00;102983.25;5074863;28;20230;-52
2022/01/24 03:10:53;;;;;;;15.40;10.23;;;;;;;5.56;100.00;102989.94;5082563;28;20285;-51
2022/01/24 03:13:32;;;;;;;15.63;10.00;;;;;;;5.42;100.00;102983.06;5077245;28;20240;-51
2022/01/24 03:16:01;;;;;;;10.90;8.97;;;;;;;5.36;100.00;102978.41;5082172;27;20233;-50
2022/01/24 03:18:28;;;;;;;15.07;10.17;;;;;;;5.39;100.00;102982.91;5080876;28;20230;-50
2022/01/24 03:20:54;;;;;;;12.63;9.40;;;;;;;5.41;100.00;102976.97;5082303;27;20239;-51
2022/01/24 03:23:22;;;;;;;13.50;10.57;;;;;;;5.38;100.00;102979.41;5071208;28;20283;-50
2022/01/24 03:25:49;;;;;;;11.80;9.30;;;;;;;5.37;100.00;102969.81;5071982;27;20328;-51
2022/01/24 03:28:17;;;;;;;12.50;9.97;;;;;;;5.32;100.00;102975.56;5076373;28;20742;-49
2022/01/24 03:30:45;;;;;;;12.63;9.87;;;;;;;5.36;100.00;102977.50;5076506;28;20227;-50
2022/01/24 03:33:12;;;;;;;15.80;10.27;;;;;;;5.38;100.00;102976.78;5076950;28;20250;-50
2022/01/24 03:35:40;;;;;;;14.27;10.27;;;;;;;5.41;100.00;102981.28;5070206;28;20314;-51
2022/01/24 03:38:06;;;;;;;13.23;9.73;;;;;;;5.36;100.00;102985.31;5070742;28;20241;-52
2022/01/24 03:40:33;;;;;;;12.70;9.77;;;;;;;5.40;100.00;102987.28;5073148;28;20385;-49
2022/01/24 03:43:00;;;;;;;13.73;9.97;;;;;;;5.35;100.00;102986.16;5074129;28;20307;-51
2022/01/24 03:45:39;;;;;;;15.17;10.33;;;;;;;5.35;100.00;102988.75;5073385;28;20262;-50
2022/01/24 03:48:09;;;;;;;12.60;8.50;;;;;;;5.29;100.00;102991.88;5079982;28;20957;-53
2022/01/24 03:50:35;;;;;;;11.27;9.30;;;;;;;5.29;100.00;103001.41;5072755;28;20738;-50
2022/01/24 03:53:02;;;;;;;11.97;8.77;;;;;;;5.29;100.00;102993.59;5068669;28;20250;-51
2022/01/24 03:55:28;;;;;;;14.07;9.63;;;;;;;5.31;100.00;103005.03;5080294;28;20859;-52
2022/01/24 03:57:55;;;;;;;12.10;9.87;;;;;;;5.29;100.00;102996.22;5075367;28;20256;-50
2022/01/24 04:00:21;;;;;;;13.30;8.97;;;;;;;5.29;100.00;103001.41;5077694;28;20231;-51
2022/01/24 04:02:49;;;;;;;12.27;9.43;;;;;;;5.31;100.00;102999.81;5071671;27;20273;-48
2022/01/24 04:05:15;;;;;;;16.40;10.37;;;;;;;5.30;100.00;102998.91;5078497;28;20314;-53
2022/01/24 04:07:42;;;;;;;13.43;10.70;;;;;;;5.31;100.00;102989.38;5080263;27;20292;-50
2022/01/24 04:10:09;;;;;;;13.23;10.67;;;;;;;5.34;100.00;102990.47;5072306;28;20600;-51
2022/01/24 04:12:39;;;;;;;15.83;9.80;;;;;;;5.33;100.00;102990.34;5079765;28;20234;-51
2022/01/24 04:15:12;;;;;;;14.93;11.03;;;;;;;5.31;100.00;102992.88;5077596;28;20318;-51
2022/01/24 04:17:42;;;;;;;15.33;10.60;;;;;;;5.34;100.00;102994.78;5081859;28;20234;-49
2022/01/24 04:22:57;;;;;;;16.47;11.70;;;;;;;5.35;100.00;102997.47;5075387;27;20262;-51
2022/01/24 04:25:24;;;;;;;17.93;10.57;;;;;;;5.31;100.00;102994.59;5073864;27;20239;-53
2022/01/24 04:27:51;;;;;;;17.47;12.83;;;;;;;5.41;100.00;102986.50;5084251;27;20861;-55
2022/01/24 04:30:18;;;;;;;17.53;12.93;;;;;;;5.39;100.00;102989.00;5074960;28;20984;-50
2022/01/24 04:32:44;;;;;;;15.50;11.90;;;;;;;5.29;100.00;102988.41;5076286;27;20238;-53
2022/01/24 04:35:12;;;;;;;18.23;11.90;;;;;;;5.43;100.00;102990.06;5077751;28;20745;-51
2022/01/24 04:37:38;;;;;;;16.70;11.63;;;;;;;5.34;100.00;102992.19;5075311;27;20269;-52
2022/01/24 04:40:06;;;;;;;17.17;11.87;;;;;;;5.40;100.00;102997.72;5079601;28;20963;-52
2022/01/24 04:42:40;;;;;;;15.90;11.90;;;;;;;5.36;100.00;103000.94;5077950;28;20299;-52
2022/01/24 04:45:25;;;;;;;18.77;12.23;;;;;;;5.32;100.00;102999.00;5080702;28;20222;-52
2022/01/24 04:50:47;;;;;;;17.00;11.97;;;;;;;5.43;100.00;102995.28;5076768;28;20229;-50
2022/01/24 04:53:30;;;;;;;15.10;11.00;;;;;;;5.46;100.00;103003.28;5069877;28;20230;-52
2022/01/24 04:55:56;;;;;;;13.57;10.63;;;;;;;5.45;100.00;103004.09;5074276;27;20248;-51
2022/01/24 04:58:23;;;;;;;19.00;10.97;;;;;;;5.36;100.00;103003.56;5082683;28;20266;-51
2022/01/24 05:00:49;;;;;;;16.80;11.80;;;;;;;5.40;100.00;103005.53;5080344;28;20323;-52
2022/01/24 05:03:15;;;;;;;13.53;10.70;;;;;;;5.33;100.00;103003.38;5084151;28;20637;-52
2022/01/24 05:05:44;;;;;;;15.07;10.80;;;;;;;5.31;100.00;103005.03;5085790;28;20257;-51
2022/01/24 05:08:10;;;;;;;13.87;10.80;;;;;;;5.24;100.00;103002.06;5080854;27;20265;-50
2022/01/24 05:10:41;;;;;;;11.33;9.17;;;;;;;5.19;100.00;103010.41;5078077;28;20623;-52
2022/01/24 05:21:41;;;;;;;13.40;9.83;;;;;;;5.19;100.00;103011.28;5075738;28;20246;-51
2022/01/24 05:24:06;;;;;;;14.23;10.23;;;;;;;5.16;100.00;103013.75;5076330;27;20234;-50
2022/01/24 05:26:33;;;;;;;11.43;9.60;;;;;;;5.17;100.00;103010.31;5077597;28;20247;-50
2022/01/24 05:28:59;;;;;;;14.77;10.57;;;;;;;5.19;100.00;103013.91;5076697;28;20246;-49
2022/01/24 05:31:25;;;;;;;10.47;9.37;;;;;;;5.13;100.00;103013.56;5072723;27;20305;-51
2022/01/24 05:33:52;;;;;;;11.20;9.17;;;;;;;5.10;100.00;103017.69;5086751;27;20226;-51
2022/01/24 05:36:18;;;;;;;13.30;9.63;;;;;;;5.06;100.00;103024.44;5084696;28;20312;-48
2022/01/24 05:38:46;;;;;;;11.87;8.90;;;;;;;5.11;100.00;103017.78;5075656;28;20718;-52
2022/01/24 05:41:12;;;;;;;12.77;9.33;;;;;;;5.11;100.00;103025.59;5080852;28;20291;-52
2022/01/24 05:43:38;;;;;;;13.20;8.77;;;;;;;5.15;100.00;103024.06;5085526;28;20230;-50
2022/01/24 05:46:05;;;;;;;11.50;9.20;;;;;;;5.15;100.00;103024.94;5082837;28;20234;-52
2022/01/24 05:48:31;;;;;;;15.00;10.13;;;;;;;5.23;100.00;103022.81;5088336;27;20797;-50
2022/01/24 05:50:57;;;;;;;15.17;10.23;;;;;;;5.28;100.00;103020.47;5085588;28;20257;-52
2022/01/24 05:53:24;;;;;;;14.63;9.87;;;;;;;5.21;100.00;103020.09;5086161;27;20241;-50
2022/01/24 05:55:53;;;;;;;10.90;9.80;;;;;;;5.31;100.00;103025.84;5087040;27;20230;-51
2022/01/24 05:58:19;;;;;;;14.23;8.80;;;;;;;5.29;100.00;103030.06;5076273;28;20247;-51
2022/01/24 06:00:46;;;;;;;11.80;9.27;;;;;;;5.28;100.00;103030.88;5074711;27;20259;-52
2022/01/24 06:03:12;;;;;;;10.70;8.90;;;;;;;5.38;100.00;103030.59;5077352;28;20271;-50
2022/01/24 06:05:38;;;;;;;9.43;7.50;;;;;;;5.20;100.00;103027.84;5081044;28;20246;-49
2022/01/24 06:08:05;;;;;;;9.20;8.07;;;;;;;5.27;100.00;103024.78;5069504;28;20315;-47
2022/01/24 06:10:32;;;;;;;13.70;8.53;;;;;;;5.33;100.00;103025.09;5077545;27;20331;-51
2022/01/24 06:12:59;;;;;;;10.83;8.50;;;;;;;5.30;100.00;103034.44;5081599;28;20219;-51
2022/01/24 06:15:25;;;;;;;10.53;8.20;;;;;;;5.33;100.00;103029.44;5080045;27;20335;-53
2022/01/24 06:17:52;;;;;;;12.27;8.83;;;;;;;5.23;100.00;103033.22;5083194;27;20304;-50
2022/01/24 06:20:18;;;;;;;14.30;9.43;;;;;;;5.19;100.00;103033.84;5081729;28;20253;-48
2022/01/24 06:22:45;;;;;;;10.90;9.37;;;;;;;5.08;100.00;103033.22;5082252;27;20231;-49
2022/01/24 06:25:13;;;;;;;10.27;8.93;;;;;;;5.14;100.00;103038.78;5078112;28;20298;-52
2022/01/24 06:27:40;;;;;;;11.63;8.93;;;;;;;5.11;100.00;103036.00;5073833;28;20318;-54
2022/01/24 06:30:09;;;;;;;11.13;8.27;;;;;;;5.18;100.00;103039.88;5081587;27;20649;-50
2022/01/24 06:32:35;;;;;;;10.33;7.70;;;;;;;5.15;100.00;103040.56;5083828;27;20299;-50
2022/01/24 06:35:01;;;;;;;10.63;9.53;;;;;;;5.30;100.00;103042.25;5079941;28;20230;-49
2022/01/24 06:37:28;;;;;;;10.20;8.27;;;;;;;5.31;100.00;103038.88;5068554;28;20243;-48
2022/01/24 06:39:55;;;;;;;10.07;7.83;;;;;;;5.31;100.00;103036.28;5080942;28;20226;-52
2022/01/24 06:42:23;;;;;;;9.17;7.93;;;;;;;5.34;100.00;103039.06;5076340;28;20329;-51
2022/01/24 06:44:50;;;;;;;12.83;8.87;;;;;;;5.34;100.00;103046.88;5075365;27;20250;-50
2022/01/24 06:47:17;;;;;;;8.30;7.50;;;;;;;5.34;100.00;103041.66;5077551;28;20268;-50
2022/01/24 06:49:44;;;;;;;11.27;9.07;;;;;;;5.24;100.00;103046.31;5078734;28;20726;-50
2022/01/24 06:52:10;;;;;;;11.03;8.63;;;;;;;5.24;100.00;103050.66;5079119;27;20279;-50
2022/01/24 06:54:41;;;;;;;11.03;8.73;;;;;;;5.23;100.00;103048.84;5076084;28;20776;-50
2022/01/24 06:57:07;;;;;;;9.67;7.83;;;;;;;5.20;100.00;103052.19;5081147;28;20645;-50
2022/01/24 06:59:35;;;;;;;8.30;7.13;;;;;;;5.13;100.00;103057.84;5076909;28;20300;-49
2022/01/24 07:02:01;;;;;;;10.00;7.10;;;;;;;5.19;100.00;103052.97;5082674;28;20237;-53
2022/01/24 07:04:29;;;;;;;12.43;8.40;;;;;;;5.16;100.00;103057.09;5074956;27;20267;-53
2022/01/24 07:06:56;;;;;;;11.77;9.17;;;;;;;5.20;100.00;103059.09;5078516;28;20270;-52
2022/01/24 07:09:22;;;;;;;11.83;8.00;;;;;;;5.13;100.00;103068.25;5075371;28;20256;-50
2022/01/24 07:11:49;;;;;;;11.40;9.10;;;;;;;5.16;100.00;103068.44;5081560;27;20330;-50
2022/01/24 07:14:15;;;;;;;8.63;7.57;;;;;;;4.99;100.00;103069.16;5077344;27;20230;-50
2022/01/24 07:17:04;;;;;;;10.50;7.80;;;;;;;4.96;100.00;103062.03;5074915;28;20258;-50
2022/01/24 07:19:33;;;;;;;13.23;9.03;;;;;;;4.99;100.00;103062.22;5076887;28;20232;-51
2022/01/24 07:22:01;;;;;;;12.40;8.67;;;;;;;5.14;100.00;103069.13;5076249;27;20254;-51
2022/01/24 07:24:28;;;;;;;11.27;8.20;;;;;;;5.06;100.00;103066.09;5081509;27;20258;-48
2022/01/24 07:26:55;;;;;;;13.60;8.57;;;;;;;5.10;100.00;103078.47;5079285;28;20258;-51
2022/01/24 07:29:21;;;;;;;12.53;8.50;;;;;;;5.00;100.00;103068.31;5082321;28;20291;-52
2022/01/24 07:31:48;;;;;;;11.07;8.33;;;;;;;4.97;100.00;103073.34;5070935;28;20315;-49
2022/01/24 07:34:14;;;;;;;9.90;7.60;;;;;;;5.00;100.00;103073.53;5074849;28;20246;-55
2022/01/24 07:36:42;;;;;;;11.27;7.77;;;;;;;4.97;100.00;103073.34;5074967;27;20273;-49
2022/01/24 07:39:08;;;;;;;12.53;6.43;;;;;;;4.91;100.00;103079.06;5079591;27;20760;-52
2022/01/24 07:41:42;;;;;;;9.60;6.83;;;;;;;4.93;100.00;103074.88;5084944;28;20235;-51
2022/01/24 07:44:09;;;;;;;10.23;6.60;;;;;;;4.94;100.00;103078.38;5076391;28;20231;-50
2022/01/24 07:46:35;;;;;;;7.87;6.10;;;;;;;4.93;100.00;103069.66;5075416;28;20313;-51
2022/01/24 07:49:01;;;;;;;10.37;7.13;;;;;;;4.98;100.00;103072.53;5079721;28;22225;-51
2022/01/24 07:51:28;;;;;;;9.70;6.27;;;;;;;5.05;100.00;103074.69;5073859;28;20235;-52
2022/01/24 07:53:55;;;;;;;14.67;6.40;;;;;;;5.04;100.00;103078.09;5074859;28;20864;-51
2022/01/24 07:56:22;;;;;;;8.23;6.33;;;;;;;5.03;100.00;103071.13;5083545;27;20746;-50
2022/01/24 07:58:48;;;;;;;7.57;6.03;;;;;;;5.08;100.00;103069.66;5085584;27;20226;-50
2022/01/24 08:01:15;;;;;;;11.33;7.00;;;;;;;5.13;100.00;103073.47;5076167;28;20260;-51
2022/01/24 08:03:42;;;;;;;11.67;6.57;;;;;;;5.14;100.00;103072.63;5074908;28;20239;-51
2022/01/24 08:06:08;;;;;;;9.57;6.67;;;;;;;5.17;100.00;103069.31;5082052;28;20256;-47
2022/01/24 08:08:35;;;;;;;10.90;6.47;;;;;;;5.18;100.00;103074.59;5078432;28;20640;-52
2022/01/24 08:11:03;;;;;;;9.33;6.47;;;;;;;5.19;100.00;103078.09;5078874;28;20873;-53
2022/01/24 08:13:29;;;;;;;9.77;7.13;;;;;;;5.21;100.00;103080.00;5086547;27;20227;-51
2022/01/24 08:15:55;;;;;;;7.47;6.20;;;;;;;5.34;100.00;103075.53;5081182;28;20254;-52
2022/01/24 08:18:21;;;;;;;7.90;5.87;;;;;;;5.29;100.00;103084.75;5081430;28;20258;-49
2022/01/24 08:20:48;;;;;;;11.20;6.47;;;;;;;5.33;100.00;103086.72;5081859;28;20234;-49
2022/01/24 08:23:16;;;;;;;8.73;5.57;;;;;;;5.37;100.00;103081.81;5082094;27;20920;-51
2022/01/24 08:25:43;;;;;;;8.03;5.20;;;;;;;5.37;100.00;103086.09;5077317;28;20231;-52
2022/01/24 08:28:10;;;;;;;8.87;6.17;;;;;;;5.39;100.00;103087.97;5083445;28;20227;-49
2022/01/24 08:30:36;;;;;;;9.10;5.50;;;;;;;5.48;100.00;103092.84;5082845;27;20328;-50
2022/01/24 08:33:05;;;;;;;7.87;6.40;;;;;;;5.55;100.00;103095.00;5085180;27;20276;-50
2022/01/24 08:35:32;;;;;;;7.37;5.33;;;;;;;5.50;100.00;103084.28;5079235;28;20247;-52
2022/01/24 08:37:58;;;;;;;8.37;5.93;;;;;;;5.56;100.00;103078.53;5089487;27;20741;-50
2022/01/24 08:40:27;;;;;;;10.20;6.60;;;;;;;5.57;100.00;103088.16;5084227;28;20261;-49
2022/01/24 08:42:59;;;;;;;8.63;5.80;;;;;;;5.54;100.00;103090.56;5084862;28;20226;-52
2022/01/24 08:45:47;;;;;;;8.20;5.47;;;;;;;5.56;100.00;103080.25;5080745;28;20310;-51
2022/01/24 08:48:16;;;;;;;10.80;6.17;;;;;;;5.56;100.00;103075.94;5083580;28;20230;-50
2022/01/24 08:50:43;;;;;;;6.87;5.63;;;;;;;5.59;100.00;103081.31;5081683;28;20230;-50
2022/01/24 08:53:10;;;;;;;7.73;6.23;;;;;;;5.67;100.00;103076.53;5078807;28;20280;-49
2022/01/24 08:55:37;;;;;;;8.33;5.50;;;;;;;5.73;100.00;103074.28;5088753;27;20230;-54
2022/01/24 08:58:05;;;;;;;6.63;5.40;;;;;;;5.78;100.00;103078.03;5083305;27;20259;-50
2022/01/24 09:00:33;;;;;;;9.43;6.27;;;;;;;5.94;100.00;103085.06;5081203;28;20238;-51
2022/01/24 09:02:59;;;;;;;8.10;6.00;;;;;;;6.06;100.00;103079.63;5080222;28;20265;-51
2022/01/24 09:05:27;;;;;;;7.37;5.37;;;;;;;6.08;100.00;103091.03;5085844;28;20372;-50
2022/01/24 09:07:54;;;;;;;7.13;5.33;;;;;;;6.05;100.00;103090.88;5083403;27;20231;-51
2022/01/24 09:10:24;;;;;;;8.83;6.20;;;;;;;6.08;100.00;103078.91;5090009;28;20285;-51
2022/01/24 09:12:50;;;;;;;8.73;6.07;;;;;;;6.13;100.00;103082.63;5084153;28;20329;-51
2022/01/24 09:15:16;;;;;;;6.93;5.30;;;;;;;6.15;100.00;103080.13;5086681;28;20231;-51
2022/01/24 09:17:44;;;;;;;8.33;5.43;;;;;;;6.15;100.00;103083.63;5074034;28;20242;-51
2022/01/24 09:20:12;;;;;;;9.33;6.00;;;;;;;6.18;100.00;103075.09;5091249;28;20253;-51
2022/01/24 09:22:38;;;;;;;6.47;5.77;;;;;;;6.29;100.00;103083.50;5080839;28;20736;-52
2022/01/24 09:25:06;;;;;;;11.73;5.83;;;;;;;6.28;100.00;103084.28;5080292;28;20223;-51
2022/01/24 09:27:33;;;;;;;9.13;6.20;;;;;;;6.15;100.00;103081.03;5086711;27;20287;-52
2022/01/24 09:30:00;;;;;;;8.70;6.87;;;;;;;6.21;100.00;103081.38;5085772;28;20230;-51
2022/01/24 09:32:27;;;;;;;7.93;6.53;;;;;;;6.27;100.00;103072.06;5074965;28;20230;-49
2022/01/24 09:34:54;;;;;;;7.37;5.50;;;;;;;6.25;100.00;103072.00;5078710;28;20238;-50
2022/01/24 09:37:21;;;;;;;8.50;7.20;;;;;;;6.29;100.00;103067.84;5086026;28;20262;-51
2022/01/24 09:39:47;;;;;;;7.83;6.77;;;;;;;6.31;100.00;103066.19;5088559;27;20261;-50
2022/01/24 09:42:14;;;;;;;8.03;6.03;;;;;;;6.34;100.00;103071.59;5076962;28;20246;-50
2022/01/24 09:44:40;;;;;;;10.40;7.23;;;;;;;6.40;100.00;103071.94;5079841;28;20223;-50
2022/01/24 09:47:07;;;;;;;8.77;6.80;;;;;;;6.37;100.00;103075.25;5083947;28;20944;-52
2022/01/24 09:49:33;;;;;;;7.33;5.50;;;;;;;6.34;100.00;103074.19;5081713;28;20718;-51
2022/01/24 09:52:01;;;;;;;7.07;6.03;;;;;;;6.41;100.00;103078.94;5078184;27;20916;-50
2022/01/24 09:54:27;;;;;;;8.63;6.33;;;;;;;6.50;100.00;103076.81;5078066;28;20306;-50
2022/01/24 09:56:53;;;;;;;6.97;5.93;;;;;;;6.45;100.00;103070.44;5082284;28;20230;-50
2022/01/24 09:59:20;;;;;;;9.83;7.23;;;;;;;6.41;100.00;103073.72;5083104;27;20231;-47
2022/01/24 10:01:46;;;;;;;8.37;6.03;;;;;;;6.47;100.00;103073.16;5078440;28;20231;-51
2022/01/24 10:04:16;;;;;;;9.33;6.77;;;;;;;6.53;100.00;103077.00;5082368;27;20322;-51
2022/01/24 10:07:05;;;;;;;9.33;7.13;;;;;;;6.52;100.00;103071.66;5081893;28;20242;-49
2022/01/24 10:09:34;;;;;;;8.90;6.30;;;;;;;6.52;100.00;103075.16;5082614;28;20933;-51
2022/01/24 10:12:11;;;;;;;10.00;7.30;;;;;;;6.56;100.00;103079.72;5082674;28;20250;-50
2022/01/24 10:17:23;;;;;;;10.37;7.70;;;;;;;6.52;100.00;103077.78;5082279;27;20253;-50
2022/01/24 10:19:50;;;;;;;11.50;8.07;;;;;;;6.40;100.00;103075.44;5085162;28;20280;-51
2022/01/24 10:22:21;;;;;;;10.63;8.03;;;;;;;6.27;100.00;103077.28;5076881;28;20655;-48
2022/01/24 10:24:51;;;;;;;8.97;6.67;;;;;;;6.30;100.00;103069.63;5076178;28;20230;-50
2022/01/24 10:27:23;;;;;;;9.47;7.57;;;;;;;6.31;100.00;103066.19;5072230;28;20254;-49
2022/01/24 10:29:51;;;;;;;10.67;7.30;;;;;;;6.41;100.00;103065.88;5080601;28;20234;-51
2022/01/24 10:32:31;;;;;;;10.03;7.17;;;;;;;6.35;100.00;103062.94;5084071;28;20277;-50
2022/01/24 10:35:25;;;;;;;7.30;6.30;;;;;;;6.34;100.00;103063.75;5084488;28;20230;-49
2022/01/24 10:38:15;;;;;;;9.37;7.43;;;;;;;6.24;100.00;103056.25;5075423;28;20240;-47
2022/01/24 10:40:49;;;;;;;9.97;7.47;;;;;;;6.24;100.00;103054.53;5078336;28;20230;-50
2022/01/24 10:43:17;;;;;;;8.90;6.60;;;;;;;6.29;100.00;103045.25;5073481;28;20238;-54
2022/01/24 10:45:45;;;;;;;9.30;7.37;;;;;;;6.44;100.00;103047.78;5083456;28;20230;-49
2022/01/24 10:48:11;;;;;;;8.60;6.60;;;;;;;6.44;100.00;103040.84;5074705;27;20227;-52
2022/01/24 10:50:38;;;;;;;8.07;6.63;;;;;;;6.51;100.00;103047.28;5082588;28;20750;-48
2022/01/24 10:53:12;;;;;;;7.87;6.17;;;;;;;6.51;100.00;103039.47;5072664;28;20307;-50
2022/01/24 10:55:40;;;;;;;8.27;6.33;;;;;;;6.45;100.00;103044.34;5082204;28;20609;-48
2022/01/24 10:58:09;;;;;;;8.30;6.40;;;;;;;6.53;100.00;103031.69;5078236;27;20264;-47
2022/01/24 11:00:36;;;;;;;7.80;6.23;;;;;;;6.43;100.00;103035.56;5077221;28;20289;-50
2022/01/24 11:03:03;;;;;;;9.73;6.53;;;;;;;6.43;100.00;103032.94;5082549;28;20238;-50
2022/01/24 11:05:34;;;;;;;9.37;7.27;;;;;;;6.50;100.00;103027.25;5095454;28;20235;-51
2022/01/24 11:08:02;;;;;;;8.80;6.33;;;;;;;6.33;100.00;103038.50;5091166;27;20230;-49
2022/01/24 11:10:35;;;;;;;6.90;6.20;;;;;;;6.31;100.00;103034.88;5093445;27;20230;-50
2022/01/24 11:13:03;;;;;;;7.60;6.00;;;;;;;6.32;100.00;103029.78;5094065;28;20227;-49
2022/01/24 11:15:30;;;;;;;9.23;6.90;;;;;;;6.24;100.00;103030.16;5078808;27;20365;-50
2022/01/24 11:17:58;;;;;;;9.30;6.03;;;;;;;6.14;100.00;103016.66;5078564;27;20257;-50
2022/01/24 11:20:30;;;;;;;6.97;6.20;;;;;;;6.19;100.00;103030.81;5085115;28;20289;-51
2022/01/24 11:23:01;;;;;;;7.47;6.03;;;;;;;6.12;100.00;103018.25;5083396;28;20253;-51
2022/01/24 11:25:34;;;;;;;7.07;5.53;;;;;;;6.02;100.00;103015.06;5073440;28;20218;-49
2022/01/24 11:28:01;;;;;;;9.40;5.83;;;;;;;5.95;100.00;103017.34;5076678;27;20254;-49
2022/01/24 11:30:30;;;;;;;8.30;5.63;;;;;;;6.01;100.00;103013.28;5079712;28;20234;-50
2022/01/24 11:32:59;;;;;;;8.60;5.73;;;;;;;5.96;100.00;103010.41;5076213;28;20226;-50
2022/01/24 11:35:31;;;;;;;6.77;5.37;;;;;;;5.89;100.00;103013.47;5084847;27;20234;-51
2022/01/24 11:37:58;;;;;;;10.97;6.27;;;;;;;5.96;100.00;103010.41;5082255;28;20234;-48
2022/01/24 11:40:26;;;;;;;7.40;5.90;;;;;;;6.00;100.00;103012.38;5081842;28;20234;-53
2022/01/24 11:42:53;;;;;;;7.13;5.37;;;;;;;6.01;100.00;103011.56;5079463;28;20239;-50
2022/01/24 11:45:36;;;;;;;6.73;4.73;;;;;;;5.94;100.00;103010.34;5081142;28;20435;-47
2022/01/24 11:48:16;;;;;;;6.43;5.82;;;;;;;6.01;100.00;103008.06;5078183;27;20414;-48
2022/01/24 11:50:42;;;;;;;5.43;4.70;;;;;;;5.98;100.00;103004.47;5080919;28;20311;-48
2022/01/24 11:53:24;;;;;;;5.13;4.20;;;;;;;6.12;100.00;103002.63;5076709;27;20309;-48
2022/01/24 11:55:54;;;;;;;5.20;4.70;;;;;;;6.09;100.00;103001.56;5083501;28;20226;-48
2022/01/24 11:58:28;;;;;;;4.83;4.13;;;;;;;6.12;100.00;103001.72;5078168;28;20242;-49
2022/01/24 12:00:57;;;;;;;4.77;4.07;;;;;;;6.11;100.00;103008.66;5073182;28;20248;-49
2022/01/24 12:03:27;;;;;;;7.07;4.13;;;;;;;6.03;100.00;103002.09;5081277;27;20303;-48
2022/01/24 12:05:56;;;;;;;5.20;3.87;;;;;;;5.93;100.00;103007.63;5078426;28;20241;-48
2022/01/24 12:08:33;;;;;;;4.57;3.30;;;;;;;5.95;100.00;103001.69;5071984;28;20243;-50
2022/01/24 12:11:19;;;;;;;5.33;4.47;;;;;;;5.98;100.00;103011.41;5081817;28;20602;-51
2022/01/24 12:13:49;;;;;;;4.93;4.43;;;;;;;5.99;100.00;103005.38;5077689;28;20738;-50
2022/01/24 12:16:17;;;;;;;4.90;4.23;;;;;;;5.88;100.00;102996.03;5070706;28;20338;-50
2022/01/24 12:18:59;;;;;;;7.00;5.50;;;;;;;5.98;100.00;102998.38;5078405;27;20253;-50
2022/01/24 12:21:27;;;;;;;7.60;5.10;;;;;;;5.86;100.00;103000.25;5077872;27;20283;-47
2022/01/24 12:23:55;;;;;;;5.63;4.97;;;;;;;5.77;100.00;102998.06;5080755;28;20234;-49
2022/01/24 12:26:27;;;;;;;5.10;4.60;;;;;;;5.79;100.00;102995.53;5081780;28;20222;-47
2022/01/24 12:28:59;;;;;;;6.87;4.60;;;;;;;5.77;100.00;102986.75;5077129;28;20629;-48
2022/01/24 12:31:32;;;;;;;5.77;5.00;;;;;;;5.81;100.00;102993.91;5075481;28;20238;-49